createdAt,value
2023-04-29T00:00:27.423Z,97939.80
2023-04-29T00:02:57.771Z,97937.21
2023-04-29T00:05:28.226Z,97943.23
2023-04-29T00:07:58.653Z,97945.63
2023-04-29T00:10:28.853Z,97945.65
2023-04-29T00:12:59.057Z,97950.52
2023-04-29T00:15:29.314Z,97945.19
2023-04-29T00:17:59.498Z,97946.96
2023-04-29T00:20:29.627Z,97953.63
2023-04-29T00:22:59.752Z,97949.44
2023-04-29T00:25:29.986Z,97945.90
2023-04-29T00:28:02.127Z,97929.65
2023-04-29T00:30:33.461Z,97943.11
2023-04-29T00:33:03.951Z,97941.60
2023-04-29T00:35:34.584Z,97926.70
2023-04-29T00:38:04.746Z,97930.23
2023-04-29T00:40:36.179Z,97937.66
2023-04-29T00:43:06.417Z,97939.73
2023-04-29T00:45:36.704Z,97938.84
2023-04-29T00:48:07.709Z,97936.18
2023-04-29T00:50:38.534Z,97933.23
2023-04-29T00:53:09.061Z,97933.08
2023-04-29T00:55:40.023Z,97934.73
2023-04-29T00:58:11.764Z,97935.91
2023-04-29T01:00:44.201Z,97936.09
2023-04-29T01:03:15.133Z,97934.81
2023-04-29T01:05:47.252Z,97933.50
2023-04-29T01:08:23.056Z,97932.58
2023-04-29T01:10:56.272Z,97936.04
2023-04-29T01:13:32.037Z,97934.99
2023-04-29T01:16:07.890Z,97935.02
2023-04-29T01:18:37.849Z,97936.73
2023-04-29T01:21:09.023Z,97937.23
2023-04-29T01:23:39.645Z,97939.03
2023-04-29T01:26:10.021Z,97939.98
2023-04-29T01:29:08.322Z,97937.52
2023-04-29T01:31:45.883Z,97930.95
2023-04-29T01:34:19.938Z,97940.98
2023-04-29T01:36:58.700Z,97936.81
2023-04-29T01:39:34.692Z,97944.66
2023-04-29T01:42:19.173Z,97942.59
2023-04-29T01:44:50.083Z,97945.06
2023-04-29T01:47:23.790Z,97945.77
2023-04-29T01:49:56.682Z,97949.77
2023-04-29T01:52:28.955Z,97952.50
2023-04-29T01:55:00.101Z,97955.17
2023-04-29T01:57:38.373Z,97948.88
2023-04-29T02:00:16.209Z,97954.00
2023-04-29T02:02:52.172Z,97952.55
2023-04-29T02:05:34.189Z,97952.42
2023-04-29T02:08:05.658Z,97949.83
2023-04-29T02:10:36.057Z,97959.20
2023-04-29T02:13:21.294Z,97955.30
2023-04-29T02:15:51.593Z,97953.20
2023-04-29T02:18:22.000Z,97951.97
2023-04-29T02:20:54.159Z,97951.34
2023-04-29T02:23:24.338Z,97953.63
2023-04-29T02:25:54.471Z,97954.84
2023-04-29T02:28:24.622Z,97956.18
2023-04-29T02:30:55.230Z,97959.65
2023-04-29T02:33:25.450Z,97959.52
2023-04-29T02:35:55.716Z,97963.36
2023-04-29T02:38:26.218Z,97961.65
2023-04-29T02:40:56.601Z,97968.38
2023-04-29T02:43:26.892Z,97965.52
2023-04-29T02:45:57.170Z,97975.86
2023-04-29T02:48:27.626Z,97982.43
2023-04-29T02:50:57.866Z,97981.24
2023-04-29T02:53:28.282Z,97984.80
2023-04-29T02:55:58.465Z,97989.70
2023-04-29T02:58:28.856Z,97991.11
2023-04-29T03:00:59.105Z,97993.88
2023-04-29T03:03:31.277Z,97992.89
2023-04-29T03:06:04.787Z,97987.79
2023-04-29T03:08:36.153Z,97985.14
2023-04-29T03:11:08.435Z,97987.35
2023-04-29T03:13:40.732Z,97989.76
2023-04-29T03:16:14.171Z,97986.38
2023-04-29T03:18:46.196Z,97988.71
2023-04-29T03:21:18.781Z,97992.92
2023-04-29T03:23:53.182Z,97994.76
2023-04-29T03:26:30.910Z,97992.63
2023-04-29T03:29:03.194Z,97990.48
2023-04-29T03:31:34.964Z,97991.52
2023-04-29T03:34:19.209Z,97987.51
2023-04-29T03:36:54.090Z,97989.89
2023-04-29T03:39:26.024Z,97986.70
2023-04-29T03:41:56.139Z,97994.39
2023-04-29T03:44:26.351Z,97997.58
2023-04-29T03:46:58.759Z,97994.23
2023-04-29T03:49:29.506Z,97996.55
2023-04-29T03:51:59.810Z,97997.20
2023-04-29T03:54:30.983Z,97995.96
2023-04-29T03:57:02.250Z,98003.29
2023-04-29T03:59:32.887Z,98004.55
2023-04-29T04:02:04.766Z,98005.27
2023-04-29T04:04:35.484Z,98010.33
2023-04-29T04:07:06.242Z,98006.20
2023-04-29T04:09:44.107Z,97990.08
2023-04-29T04:12:14.390Z,98007.56
2023-04-29T04:14:44.720Z,98003.92
2023-04-29T04:17:15.055Z,98006.05
2023-04-29T04:19:45.347Z,98002.88
2023-04-29T04:22:17.207Z,98006.24
2023-04-29T04:24:54.231Z,98006.49
2023-04-29T04:27:24.462Z,98011.42
2023-04-29T04:29:57.299Z,98006.91
2023-04-29T04:32:31.792Z,98002.65
2023-04-29T04:35:02.014Z,98007.25
2023-04-29T04:37:32.155Z,98013.89
2023-04-29T04:40:03.233Z,98009.27
2023-04-29T04:42:33.990Z,98015.27
2023-04-29T04:45:04.618Z,98018.45
2023-04-29T04:47:45.325Z,98020.17
2023-04-29T04:50:24.160Z,98022.05
2023-04-29T04:52:56.673Z,98022.17
2023-04-29T04:55:47.166Z,98020.41
2023-04-29T04:58:17.299Z,98018.13
2023-04-29T05:00:48.048Z,98022.86
2023-04-29T05:03:18.440Z,98026.23
2023-04-29T05:05:48.903Z,98027.21
2023-04-29T05:08:19.036Z,98032.98
2023-04-29T05:10:49.931Z,98040.35
2023-04-29T05:13:20.123Z,98041.57
2023-04-29T05:15:50.498Z,98050.29
2023-04-29T05:18:24.611Z,98055.11
2023-04-29T05:20:56.071Z,98053.79
2023-04-29T05:23:26.698Z,98057.91
2023-04-29T05:25:57.168Z,98061.07
2023-04-29T05:28:28.416Z,98066.79
2023-04-29T05:30:59.519Z,98070.08
2023-04-29T05:33:29.792Z,98075.83
2023-04-29T05:36:00.074Z,98080.25
2023-04-29T05:38:30.713Z,98085.55
2023-04-29T05:41:16.201Z,98090.63
2023-04-29T05:44:09.151Z,98093.61
2023-04-29T05:46:40.112Z,98094.98
2023-04-29T05:49:10.448Z,98102.63
2023-04-29T05:51:41.004Z,98110.40
2023-04-29T05:54:11.337Z,98110.77
2023-04-29T05:56:42.394Z,98121.27
2023-04-29T05:59:12.771Z,98126.77
2023-04-29T06:01:43.509Z,98126.62
2023-04-29T06:04:14.189Z,98136.27
2023-04-29T06:07:09.916Z,98138.02
2023-04-29T06:10:02.877Z,98144.83
2023-04-29T06:12:33.902Z,98149.70
2023-04-29T06:15:04.271Z,98152.31
2023-04-29T06:17:34.878Z,98152.42
2023-04-29T06:20:05.606Z,98159.34
2023-04-29T06:22:35.957Z,98168.52
2023-04-29T06:25:07.296Z,98168.91
2023-04-29T06:27:49.352Z,98171.74
2023-04-29T06:30:21.462Z,98173.67
2023-04-29T06:32:51.866Z,98176.41
2023-04-29T06:35:23.091Z,98181.56
2023-04-29T06:37:54.171Z,98193.06
2023-04-29T06:40:43.666Z,98195.23
2023-04-29T06:43:16.556Z,98200.21
2023-04-29T06:46:19.386Z,98204.47
2023-04-29T06:48:59.340Z,98206.84
2023-04-29T06:51:29.613Z,98212.48
2023-04-29T06:54:01.918Z,98215.39
2023-04-29T06:56:32.161Z,98216.45
2023-04-29T06:59:09.864Z,98212.84
2023-04-29T07:01:47.087Z,98218.79
2023-04-29T07:04:24.636Z,98221.69
2023-04-29T07:06:55.929Z,98225.16
2023-04-29T07:09:27.366Z,98223.62
2023-04-29T07:11:57.555Z,98227.45
2023-04-29T07:14:27.826Z,98227.89
2023-04-29T07:16:58.270Z,98230.84
2023-04-29T07:19:29.081Z,98238.50
2023-04-29T07:21:59.867Z,98238.90
2023-04-29T07:24:29.986Z,98239.86
2023-04-29T07:27:00.441Z,98246.04
2023-04-29T07:29:30.719Z,98246.69
2023-04-29T07:32:01.114Z,98248.77
2023-04-29T07:34:31.450Z,98251.00
2023-04-29T07:37:02.624Z,98247.86
2023-04-29T07:39:32.950Z,98246.89
2023-04-29T07:42:04.835Z,98249.10
2023-04-29T07:44:36.235Z,98249.31
2023-04-29T07:47:07.023Z,98253.25
2023-04-29T07:49:38.211Z,98251.36
2023-04-29T07:52:10.037Z,98257.41
2023-04-29T07:54:40.349Z,98257.67
2023-04-29T07:57:10.645Z,98257.95
2023-04-29T07:59:40.914Z,98258.81
2023-04-29T08:02:11.768Z,98263.71
2023-04-29T08:04:43.055Z,98267.52
2023-04-29T08:07:15.732Z,98274.63
2023-04-29T08:09:45.900Z,98275.92
2023-04-29T08:12:16.153Z,98278.48
2023-04-29T08:14:46.317Z,98283.67
2023-04-29T08:17:16.463Z,98288.67
2023-04-29T08:19:46.688Z,98289.67
2023-04-29T08:22:16.830Z,98295.30
2023-04-29T08:24:47.078Z,98300.86
2023-04-29T08:27:17.284Z,98300.88
2023-04-29T08:29:47.448Z,98307.02
2023-04-29T08:32:17.618Z,98311.82
2023-04-29T08:34:47.777Z,98315.42
2023-04-29T08:37:18.676Z,98316.90
2023-04-29T08:39:48.964Z,98318.82
2023-04-29T08:42:22.392Z,98320.70
2023-04-29T08:44:55.181Z,98322.79
2023-04-29T08:47:24.125Z,98321.59
2023-04-29T08:49:54.309Z,98326.29
2023-04-29T08:52:25.137Z,98326.46
2023-04-29T08:54:56.040Z,98329.63
2023-04-29T08:57:27.885Z,98331.53
2023-04-29T08:59:59.404Z,98328.09
2023-04-29T09:02:29.993Z,98328.81
2023-04-29T09:05:07.498Z,98326.89
2023-04-29T09:07:37.789Z,98329.09
2023-04-29T09:19:01.717Z,98339.76
2023-04-29T09:21:33.607Z,98344.39
2023-04-29T09:24:05.860Z,98347.52
2023-04-29T09:26:43.824Z,98347.99
2023-04-29T09:29:16.192Z,98350.19
2023-04-29T09:31:46.930Z,98354.40
2023-04-29T09:34:17.455Z,98355.65
2023-04-29T09:36:49.413Z,98356.52
2023-04-29T09:39:22.047Z,98353.52
2023-04-29T09:42:03.644Z,98351.17
2023-04-29T09:44:35.757Z,98357.79
2023-04-29T09:47:06.899Z,98361.23
2023-04-29T09:49:40.666Z,98360.18
2023-04-29T09:52:12.884Z,98365.18
2023-04-29T09:54:44.020Z,98366.98
2023-04-29T09:57:16.063Z,98361.78
2023-04-29T09:59:46.322Z,98364.30
2023-04-29T10:02:19.058Z,98370.77
2023-04-29T10:04:53.907Z,98370.42
2023-04-29T10:07:24.550Z,98370.05
2023-04-29T10:09:55.096Z,98365.24
2023-04-29T10:12:26.444Z,98372.45
2023-04-29T10:15:03.523Z,98373.33
2023-04-29T10:17:42.106Z,98372.38
2023-04-29T10:20:15.399Z,98368.59
2023-04-29T10:22:48.861Z,98367.26
2023-04-29T10:25:20.127Z,98353.56
2023-04-29T10:27:53.391Z,98355.73
2023-04-29T10:30:23.722Z,98349.36
2023-04-29T10:32:53.922Z,98356.49
2023-04-29T10:35:25.431Z,98357.23
2023-04-29T10:37:55.969Z,98356.74
2023-04-29T10:40:31.444Z,98358.99
2023-04-29T10:43:01.985Z,98354.42
2023-04-29T10:45:35.308Z,98353.58
2023-04-29T10:48:21.294Z,98352.86
2023-04-29T10:51:07.079Z,98353.02
2023-04-29T10:53:38.406Z,98355.80
2023-04-29T10:56:11.632Z,98357.17
2023-04-29T10:58:47.131Z,98361.36
2023-04-29T11:01:18.827Z,98357.84
2023-04-29T11:03:59.242Z,98358.52
2023-04-29T11:06:41.854Z,98353.07
2023-04-29T11:09:14.761Z,98348.04
2023-04-29T11:11:50.122Z,98349.70
2023-04-29T11:14:24.970Z,98352.42
2023-04-29T11:16:57.652Z,98351.79
2023-04-29T11:19:31.681Z,98350.27
2023-04-29T11:22:27.990Z,98349.14
2023-04-29T11:25:00.702Z,98351.26
2023-04-29T11:27:33.109Z,98347.09
2023-04-29T11:30:05.369Z,98348.56
2023-04-29T11:32:37.159Z,98345.11
2023-04-29T11:35:12.626Z,98347.93
2023-04-29T11:37:44.371Z,98350.55
2023-04-29T11:40:15.596Z,98357.45
2023-04-29T11:42:46.822Z,98359.99
2023-04-29T11:45:19.320Z,98360.66
2023-04-29T11:47:50.791Z,98360.98
2023-04-29T11:50:22.827Z,98357.52
2023-04-29T11:52:53.105Z,98359.27
2023-04-29T11:55:23.240Z,98362.81
2023-04-29T11:57:53.571Z,98365.90
2023-04-29T12:00:23.939Z,98359.82
2023-04-29T12:02:54.334Z,98362.63
2023-04-29T12:05:27.835Z,98361.27
2023-04-29T12:07:58.378Z,98364.85
2023-04-29T12:10:29.544Z,98365.54
2023-04-29T12:13:00.167Z,98369.59
2023-04-29T12:15:30.931Z,98372.97
2023-04-29T12:18:02.862Z,98376.06
2023-04-29T12:20:33.813Z,98367.92
2023-04-29T12:23:14.718Z,98365.73
2023-04-29T12:25:47.208Z,98367.45
2023-04-29T12:28:18.286Z,98365.81
2023-04-29T12:30:48.868Z,98363.61
2023-04-29T12:33:23.151Z,98365.70
2023-04-29T12:35:54.815Z,98368.33
2023-04-29T12:38:27.755Z,98369.48
2023-04-29T12:40:59.608Z,98373.63
2023-04-29T12:43:30.399Z,98371.06
2023-04-29T12:46:05.156Z,98373.61
2023-04-29T12:48:38.701Z,98369.71
2023-04-29T12:51:11.730Z,98374.59
2023-04-29T12:53:42.295Z,98371.54
2023-04-29T12:56:14.302Z,98376.53
2023-04-29T12:58:44.505Z,98375.25
2023-04-29T13:01:18.412Z,98382.35
2023-04-29T13:03:49.788Z,98388.22
2023-04-29T13:06:20.374Z,98386.15
2023-04-29T13:08:51.490Z,98390.37
2023-04-29T13:11:21.773Z,98390.11
2023-04-29T13:13:52.008Z,98386.35
2023-04-29T13:16:22.388Z,98389.41
2023-04-29T13:19:05.302Z,98391.85
2023-04-29T13:21:39.382Z,98396.02
2023-04-29T13:24:10.616Z,98398.30
2023-04-29T13:26:41.354Z,98404.12
2023-04-29T13:29:11.546Z,98403.33
2023-04-29T13:31:43.917Z,98398.41
2023-04-29T13:34:14.636Z,98398.36
2023-04-29T13:36:44.940Z,98395.44
2023-04-29T13:39:15.306Z,98396.36
2023-04-29T13:41:46.666Z,98399.81
2023-04-29T13:44:27.353Z,98404.00
2023-04-29T13:47:05.529Z,98404.34
2023-04-29T13:50:10.047Z,98405.59
2023-04-29T13:53:17.948Z,98407.75
2023-04-29T13:56:07.253Z,98402.77
2023-04-29T14:03:15.421Z,98409.28
2023-04-29T14:05:45.743Z,98416.57
2023-04-29T14:08:16.168Z,98419.80
2023-04-29T14:10:46.731Z,98421.39
2023-04-29T14:13:17.683Z,98428.34
2023-04-29T14:15:48.112Z,98434.73
2023-04-29T14:18:19.771Z,98431.06
2023-04-29T14:20:50.343Z,98430.27
2023-04-29T14:23:21.576Z,98432.59
2023-04-29T14:25:53.481Z,98432.33
2023-04-29T14:28:24.869Z,98434.48
2023-04-29T14:30:55.659Z,98433.91
2023-04-29T14:33:26.308Z,98439.77
2023-04-29T14:35:56.624Z,98443.95
2023-04-29T14:38:26.781Z,98444.03
2023-04-29T14:40:57.002Z,98445.45
2023-04-29T14:43:28.912Z,98449.40
2023-04-29T14:45:59.593Z,98452.06
2023-04-29T14:48:30.031Z,98455.62
2023-04-29T14:51:00.352Z,98465.18
2023-04-29T14:53:30.632Z,98467.41
2023-04-29T14:56:00.851Z,98471.08
2023-04-29T14:58:31.201Z,98464.98
2023-04-29T15:01:01.733Z,98470.29
2023-04-29T15:03:32.202Z,98473.73
2023-04-29T15:06:03.650Z,98474.14
2023-04-29T15:08:34.051Z,98482.05
2023-04-29T15:11:04.313Z,98491.02
2023-04-29T15:13:34.633Z,98489.75
2023-04-29T15:16:07.332Z,98495.23
2023-04-29T15:18:37.635Z,98495.20
2023-04-29T15:21:08.096Z,98493.41
2023-04-29T15:23:39.342Z,98496.45
2023-04-29T15:26:09.567Z,98499.46
2023-04-29T15:28:39.804Z,98501.70
2023-04-29T15:31:10.098Z,98501.20
2023-04-29T15:33:41.767Z,98500.17
2023-04-29T15:36:12.092Z,98504.32
2023-04-29T15:38:42.436Z,98510.40
2023-04-29T15:41:12.614Z,98508.49
2023-04-29T15:43:42.758Z,98513.14
2023-04-29T15:46:13.105Z,98516.92
2023-04-29T15:48:43.344Z,98516.20
2023-04-29T15:51:15.063Z,98517.06
2023-04-29T15:53:45.358Z,98521.20
2023-04-29T15:56:15.769Z,98513.12
2023-04-29T15:58:46.002Z,98521.77
2023-04-29T16:01:16.301Z,98524.60
2023-04-29T16:03:46.595Z,98522.48
2023-04-29T16:06:18.140Z,98526.92
2023-04-29T16:08:49.027Z,98527.31
2023-04-29T16:11:19.316Z,98532.37
2023-04-29T16:13:49.427Z,98538.45
2023-04-29T16:16:19.614Z,98537.98
2023-04-29T16:18:49.740Z,98537.76
2023-04-29T16:21:20.031Z,98540.26
2023-04-29T16:23:51.003Z,98545.14
2023-04-29T16:26:21.698Z,98548.62
2023-04-29T16:28:52.936Z,98550.04
2023-04-29T16:31:23.619Z,98548.86
2023-04-29T16:33:56.952Z,98550.79
2023-04-29T16:36:27.862Z,98550.17
2023-04-29T16:38:58.161Z,98551.98
2023-04-29T16:41:28.369Z,98554.14
2023-04-29T16:43:58.602Z,98552.95
2023-04-29T16:46:29.794Z,98557.14
2023-04-29T16:49:00.024Z,98555.23
2023-04-29T16:51:30.293Z,98556.84
2023-04-29T16:54:00.489Z,98557.94
2023-04-29T16:56:30.932Z,98555.80
2023-04-29T16:59:01.153Z,98562.27
2023-04-29T17:01:32.146Z,98559.45
2023-04-29T17:04:02.486Z,98558.75
2023-04-29T17:06:34.696Z,98560.99
2023-04-29T17:09:05.180Z,98561.29
2023-04-29T17:11:35.373Z,98566.84
2023-04-29T17:14:05.651Z,98561.39
2023-04-29T17:16:35.892Z,98561.15
2023-04-29T17:19:06.900Z,98562.13
2023-04-29T17:21:37.157Z,98559.80
2023-04-29T17:24:08.260Z,98557.70
2023-04-29T17:26:38.990Z,98560.17
2023-04-29T17:29:12.136Z,98561.08
2023-04-29T17:31:59.672Z,98563.02
2023-04-29T17:34:31.016Z,98564.15
2023-04-29T17:37:01.665Z,98565.96
2023-04-29T17:39:32.053Z,98565.33
2023-04-29T17:42:02.698Z,98572.15
2023-04-29T17:44:33.001Z,98577.23
2023-04-29T17:47:04.506Z,98577.45
2023-04-29T17:49:34.729Z,98574.22
2023-04-29T17:52:05.138Z,98573.73
2023-04-29T17:54:35.537Z,98578.88
2023-04-29T17:57:05.993Z,98583.73
2023-04-29T17:59:36.215Z,98575.84
2023-04-29T18:02:06.524Z,98584.33
2023-04-29T18:04:37.381Z,98588.91
2023-04-29T18:07:07.726Z,98595.37
2023-04-29T18:09:38.422Z,98594.54
2023-04-29T18:12:08.900Z,98595.98
2023-04-29T18:14:39.323Z,98595.52
2023-04-29T18:17:09.580Z,98598.30
2023-04-29T18:19:40.142Z,98598.27
2023-04-29T18:22:10.581Z,98600.20
2023-04-29T18:24:41.047Z,98604.55
2023-04-29T18:27:11.231Z,98604.44
2023-04-29T18:29:41.452Z,98608.84
2023-04-29T18:32:12.113Z,98612.55
2023-04-29T18:34:42.555Z,98612.27
2023-04-29T18:37:12.907Z,98608.05
2023-04-29T18:39:43.499Z,98612.88
2023-04-29T18:42:14.374Z,98614.45
2023-04-29T18:44:45.858Z,98615.51
2023-04-29T18:47:16.434Z,98616.59
2023-04-29T18:49:46.920Z,98615.07
2023-04-29T18:52:17.275Z,98620.85
2023-04-29T18:54:48.016Z,98619.48
2023-04-29T18:57:18.599Z,98617.63
2023-04-29T18:59:49.140Z,98622.34
2023-04-29T19:02:20.052Z,98627.90
2023-04-29T19:04:50.435Z,98628.75
2023-04-29T19:07:21.119Z,98629.45
2023-04-29T19:09:51.582Z,98633.30
2023-04-29T19:12:22.369Z,98638.20
2023-04-29T19:14:52.563Z,98640.86
2023-04-29T19:17:23.238Z,98642.98
2023-04-29T19:19:54.650Z,98645.64
2023-04-29T19:22:25.356Z,98650.31
2023-04-29T19:24:55.717Z,98652.86
2023-04-29T19:27:26.362Z,98654.59
2023-04-29T19:29:56.689Z,98658.77
2023-04-29T19:32:29.519Z,98660.70
2023-04-29T19:35:00.347Z,98664.19
2023-04-29T19:37:30.604Z,98662.48
2023-04-29T19:40:04.010Z,98666.67
2023-04-29T19:42:34.574Z,98667.04
2023-04-29T19:45:07.342Z,98668.59
2023-04-29T19:47:37.994Z,98672.70
2023-04-29T19:50:09.697Z,98675.66
2023-04-29T19:52:40.058Z,98671.18
2023-04-29T19:55:11.432Z,98672.09
2023-04-29T19:57:42.215Z,98675.78
2023-04-29T20:00:15.362Z,98678.92
2023-04-29T20:02:47.526Z,98676.73
2023-04-29T20:05:18.035Z,98673.30
2023-04-29T20:07:48.718Z,98674.17
2023-04-29T20:10:19.191Z,98679.16
2023-04-29T20:12:49.764Z,98678.64
2023-04-29T20:15:20.744Z,98681.09
2023-04-29T20:17:51.747Z,98682.84
2023-04-29T20:20:22.586Z,98682.04
2023-04-29T20:22:57.832Z,98681.86
2023-04-29T20:25:28.764Z,98673.64
2023-04-29T20:27:59.232Z,98668.70
2023-04-29T20:30:29.886Z,98681.06
2023-04-29T20:33:00.338Z,98678.59
2023-04-29T20:35:31.142Z,98685.52
2023-04-29T20:38:01.533Z,98684.83
2023-04-29T20:40:32.615Z,98682.44
2023-04-29T20:43:03.156Z,98689.56
2023-04-29T20:45:33.385Z,98690.11
2023-04-29T20:48:03.981Z,98691.52
2023-04-29T20:50:34.354Z,98691.34
2023-04-29T20:53:04.550Z,98688.39
2023-04-29T20:55:34.848Z,98687.19
2023-04-29T20:58:05.577Z,98686.16
2023-04-29T21:00:35.884Z,98689.12
2023-04-29T21:03:06.404Z,98685.55
2023-04-29T21:05:37.024Z,98690.77
2023-04-29T21:08:08.138Z,98689.61
2023-04-29T21:10:38.314Z,98692.04
2023-04-29T21:13:08.580Z,98693.94
2023-04-29T21:15:38.885Z,98692.90
2023-04-29T21:18:09.220Z,98695.51
2023-04-29T21:20:39.572Z,98694.51
2023-04-29T21:23:10.015Z,98696.08
2023-04-29T21:25:40.573Z,98693.38
2023-04-29T21:28:10.819Z,98696.80
2023-04-29T21:30:41.273Z,98699.92
2023-04-29T21:33:11.497Z,98699.73
2023-04-29T21:35:43.503Z,98699.72
2023-04-29T21:38:13.728Z,98700.08
2023-04-29T21:40:44.551Z,98703.20
2023-04-29T21:43:15.020Z,98704.77
2023-04-29T21:45:45.576Z,98704.27
2023-04-29T21:48:18.030Z,98707.34
2023-04-29T21:50:48.635Z,98705.92
2023-04-29T21:53:19.187Z,98711.80
2023-04-29T21:55:49.721Z,98711.12
2023-04-29T21:58:21.047Z,98710.11
2023-04-29T22:00:58.336Z,98711.86
2023-04-29T22:03:28.781Z,98711.20
2023-04-29T22:05:59.364Z,98715.03
2023-04-29T22:08:29.583Z,98710.23
2023-04-29T22:10:59.751Z,98713.99
2023-04-29T22:13:30.061Z,98716.02
2023-04-29T22:16:00.722Z,98716.36
2023-04-29T22:18:31.005Z,98717.58
2023-04-29T22:21:01.427Z,98717.75
2023-04-29T22:23:31.722Z,98724.69
2023-04-29T22:26:01.877Z,98725.22
2023-04-29T22:28:32.227Z,98728.89
2023-04-29T22:31:02.423Z,98730.63
2023-04-29T22:33:32.706Z,98735.25
2023-04-29T22:36:03.562Z,98736.80
2023-04-29T22:38:34.845Z,98738.37
2023-04-29T22:41:05.718Z,98742.73
2023-04-29T22:43:35.903Z,98742.40
2023-04-29T22:46:06.546Z,98742.94
2023-04-29T22:48:37.161Z,98744.52
2023-04-29T22:51:07.718Z,98742.61
2023-04-29T22:53:38.372Z,98744.31
2023-04-29T22:56:09.006Z,98738.30
2023-04-29T22:58:39.563Z,98742.77
2023-04-29T23:01:11.786Z,98742.27
2023-04-29T23:03:42.434Z,98747.16
2023-04-29T23:06:12.742Z,98744.09
2023-04-29T23:08:44.163Z,98738.27
2023-04-29T23:11:14.374Z,98743.95
2023-04-29T23:13:44.699Z,98743.09
2023-04-29T23:16:15.151Z,98747.61
2023-04-29T23:18:45.453Z,98750.75
2023-04-29T23:21:15.667Z,98748.89
2023-04-29T23:23:45.915Z,98752.55
2023-04-29T23:26:16.232Z,98753.30
2023-04-29T23:28:46.559Z,98755.91
2023-04-29T23:31:16.848Z,98760.92
2023-04-29T23:33:47.290Z,98757.96
2023-04-29T23:36:17.432Z,98757.25
2023-04-29T23:38:48.046Z,98754.47
2023-04-29T23:41:18.331Z,98753.95
2023-04-29T23:43:49.001Z,98752.40
2023-04-29T23:46:19.150Z,98752.23
2023-04-29T23:48:49.333Z,98751.05
2023-04-29T23:51:19.553Z,98755.17
2023-04-29T23:53:49.714Z,98751.16
2023-04-29T23:56:20.043Z,98752.36
2023-04-29T23:58:49.350Z,98751.67
